Marigola — IBEL — position and weather

sailwx.info

Track history (hours):
 
Tides and Currents Weather Stations Pressure Air Temp Water Temp Dewpoint Dewpoint Depression Visibility Wind Speed Wind Dir Waves Ship Positions

Marigola

Last reported at 2016-Jun-25 16:34 UTC. Time now 2016-Jun-29 16:35 UTC.
Position N 36°51' W 075°52'.

Length 145 m; draft 8.9 m.

Type: Ship (hazmat cat A). MMSI: 247567000.

Date/timePositionNaut miles runAvg speedWind from/ knotsBaromVisibWave heightAir tempDewpointWater temp
2016-Jun-25 16:34N 36°51' W 075°52'1110.7
2016-Jun-25 15:33N 36°57' W 076°03'1211.3
2016-Jun-25 14:30N 36°60' W 076°17'8 8.4
2016-Jun-25 13:34N 36°52' W 076°20'5 4.7
2016-Jun-25 12:33N 36°48' W 076°18'1 1.4
2016-Jun-25 11:32N 36°47' W 076°19'0 0.0
2016-Jun-25 10:32N 36°47' W 076°19'0 0.0
2016-Jun-25 09:32N 36°47' W 076°19'0 0.0
2016-Jun-25 08:32N 36°47' W 076°19'0 0.0
2016-Jun-25 07:32N 36°47' W 076°19'0 0.0
2016-Jun-25 06:32N 36°47' W 076°19'0 0.0
2016-Jun-25 05:32N 36°47' W 076°19'0 0.0
2016-Jun-25 04:32N 36°47' W 076°19'0 0.0
2016-Jun-25 03:32N 36°47' W 076°19'0 0.0
2016-Jun-25 02:32N 36°47' W 076°19'0 0.0
2016-Jun-25 01:32N 36°47' W 076°19'0 0.0
2016-Jun-25 00:32N 36°47' W 076°19'0 0.0
2016-Jun-24 23:29N 36°47' W 076°19'0 0.0
2016-Jun-24 22:32N 36°47' W 076°19'0 0.0
2016-Jun-24 21:32N 36°47' W 076°19'0 0.0
2016-Jun-24 20:29N 36°47' W 076°19'0 0.0
2016-Jun-24 19:32N 36°47' W 076°19'0 0.0
2016-Jun-24 18:32N 36°47' W 076°19'0 0.0
2016-Jun-24 17:32N 36°47' W 076°19'0 0.0
2016-Jun-24 16:32N 36°47' W 076°19'0 0.0
2016-Jun-24 15:32N 36°47' W 076°19'0 0.0
2016-Jun-24 14:32N 36°47' W 076°19'0 0.0
2016-Jun-24 13:32N 36°47' W 076°19'0 0.0
2016-Jun-24 12:32N 36°47' W 076°19'0 0.0
2016-Jun-24 11:32N 36°47' W 076°19'0 0.0
2016-Jun-24 10:29N 36°47' W 076°19'0 0.0
2016-Jun-24 09:32N 36°47' W 076°19'0 0.0
2016-Jun-24 08:32N 36°47' W 076°19'0 0.0
2016-Jun-24 07:29N 36°47' W 076°19'0 0.0
2016-Jun-24 06:32N 36°47' W 076°19'3 0.3
2016-Jun-23 19:26N 36°50' W 076°18'8 1.2
2016-Jun-23 12:22N 36°57' W 076°21'0 0.0
2016-Jun-23 11:32N 36°57' W 076°21'0 0.0
2016-Jun-23 10:21N 36°57' W 076°21'8 7.1
2016-Jun-23 09:10N 36°60' W 076°11'811.3
2016-Jun-23 08:30N 36°58' W 076°02'9 9.1
2016-Jun-23 07:33N 36°54' W 075°53'  
Track history (hours):
 
Tides and Currents Weather Stations Pressure Air Temp Water Temp Dewpoint Dewpoint Depression Visibility Wind Speed Wind Dir Waves Ship Positions

Marigola

Last reported at 2016-Jun-25 16:34 UTC. Time now 2016-Jun-29 16:35 UTC.
Position N 36°51' W 075°52'.

Length 145 m; draft 8.9 m.

Type: Ship (hazmat cat A). MMSI: 247567000.

Date/timePositionNaut miles runAvg speedWind from/ knotsBaromVisibWave heightAir tempDewpointWater temp
2016-Jun-25 16:34N 36°51' W 075°52'1110.7
2016-Jun-25 15:33N 36°57' W 076°03'1211.3
2016-Jun-25 14:30N 36°60' W 076°17'8 8.4
2016-Jun-25 13:34N 36°52' W 076°20'5 4.7
2016-Jun-25 12:33N 36°48' W 076°18'1 1.4
2016-Jun-25 11:32N 36°47' W 076°19'0 0.0
2016-Jun-25 10:32N 36°47' W 076°19'0 0.0
2016-Jun-25 09:32N 36°47' W 076°19'0 0.0
2016-Jun-25 08:32N 36°47' W 076°19'0 0.0
2016-Jun-25 07:32N 36°47' W 076°19'0 0.0
2016-Jun-25 06:32N 36°47' W 076°19'0 0.0
2016-Jun-25 05:32N 36°47' W 076°19'0 0.0
2016-Jun-25 04:32N 36°47' W 076°19'0 0.0
2016-Jun-25 03:32N 36°47' W 076°19'0 0.0
2016-Jun-25 02:32N 36°47' W 076°19'0 0.0
2016-Jun-25 01:32N 36°47' W 076°19'0 0.0
2016-Jun-25 00:32N 36°47' W 076°19'0 0.0
2016-Jun-24 23:29N 36°47' W 076°19'0 0.0
2016-Jun-24 22:32N 36°47' W 076°19'0 0.0
2016-Jun-24 21:32N 36°47' W 076°19'0 0.0
2016-Jun-24 20:29N 36°47' W 076°19'0 0.0
2016-Jun-24 19:32N 36°47' W 076°19'0 0.0
2016-Jun-24 18:32N 36°47' W 076°19'0 0.0
2016-Jun-24 17:32N 36°47' W 076°19'0 0.0
2016-Jun-24 16:32N 36°47' W 076°19'0 0.0
2016-Jun-24 15:32N 36°47' W 076°19'0 0.0
2016-Jun-24 14:32N 36°47' W 076°19'0 0.0
2016-Jun-24 13:32N 36°47' W 076°19'0 0.0
2016-Jun-24 12:32N 36°47' W 076°19'0 0.0
2016-Jun-24 11:32N 36°47' W 076°19'0 0.0
2016-Jun-24 10:29N 36°47' W 076°19'0 0.0
2016-Jun-24 09:32N 36°47' W 076°19'0 0.0
2016-Jun-24 08:32N 36°47' W 076°19'0 0.0
2016-Jun-24 07:29N 36°47' W 076°19'0 0.0
2016-Jun-24 06:32N 36°47' W 076°19'3 0.3
2016-Jun-23 19:26N 36°50' W 076°18'8 1.2
2016-Jun-23 12:22N 36°57' W 076°21'0 0.0
2016-Jun-23 11:32N 36°57' W 076°21'0 0.0
2016-Jun-23 10:21N 36°57' W 076°21'8 7.1
2016-Jun-23 09:10N 36°60' W 076°11'811.3
2016-Jun-23 08:30N 36°58' W 076°02'9 9.1
2016-Jun-23 07:33N 36°54' W 075°53'  

Dump ship's entire track history